Pescara - LIBP

Metar : METAR LIBP 161950Z VRB02KT 9999 FEW070 16/14 Q1019=

Taf : TAF LIBP 161700Z 1618/1718 VRB05KT 9999 FEW040 BECMG 1710/1712 05010KT BECMG 1716/1718 VRB05KT=

 Scopri come leggere i bollettini codificati...


Storico

LIBP 161950Z VRB02KT 9999 FEW070 16/14 Q1019
LIBP 161850Z 19002KT 9999 SCT040 17/14 Q1019
LIBP 161750Z 26001KT 9999 SCT040 17/13 Q1018
LIBP 161650Z 11002KT CAVOK 18/13 Q1018
LIBP 161550Z 06005KT 040V100 CAVOK 21/13 Q1017
LIBP 161450Z 08007KT 050V130 CAVOK 22/14 Q1017
LIBP 161350Z 06007KT CAVOK 22/14 Q1017
LIBP 161250Z 06009KT 030V100 CAVOK 23/14 Q1016
LIBP 161150Z 06009KT 030V090 CAVOK 23/14 Q1017
LIBP 161050Z 05009KT 010V070 CAVOK 23/15 Q1017
LIBP 160850Z 03007KT 350V050 9999 SCT015 22/16 Q1017
LIBP 160750Z VRB02KT 9999 SCT015 21/17 Q1016
LIBP 160650Z 20005KT 180V250 CAVOK 18/15 Q1015
LIBP 160550Z VRB02KT CAVOK 16/14 Q1014
LIBP 160450Z AUTO 30005KT 240V320 9999 NCD 16/14 Q1014
LIBP 160350Z AUTO VRB02KT 9999 NCD 16/13 Q1013
LIBP 160250Z AUTO VRB03KT 9999 NCD 20/14 Q1013
LIBP 160150Z AUTO 25005KT 210V280 9999 FEW130/// 20/14 Q1013
LIBP 160050Z AUTO 21010KT 9999 FEW110/// BKN180/// 20/15 Q1012
LIBP 152350Z AUTO 23007KT 9999 -RA BKN100/// 18/16 Q1013
LIBP 152300Z AUTO 23006KT 9999 -RA FEW064/// OVC090/// 18/16 Q1013 RERA
LIBP 152250Z AUTO 20003KT 170V230 9999 RA OVC086/// 18/16 Q1013
LIBP 152216Z AUTO 23005KT 9999 RA OVC100/// 18/16 Q1014
LIBP 152150Z AUTO 22006KT 8000 -RA OVC100/// 18/16 Q1014 RESHRA
LIBP 152126Z AUTO 19005KT 9000 RA OVC100/// 18/16 Q1014
LIBP 152050Z 24003KT 210V280 CAVOK 17/16 Q1014
LIBP 151950Z VRB03KT CAVOK 18/16 Q1014
LIBP 151850Z VRB02KT CAVOK 18/16 Q1014
LIBP 151750Z VRB03KT CAVOK 20/17 Q1013
LIBP 151650Z 09004KT CAVOK 20/16 Q1014
LIBP 151550Z 04005KT 9999 SCT080 21/17 Q1014
LIBP 151450Z 06007KT 9999 SCT080 22/17 Q1014
LIBP 151350Z 07009KT CAVOK 23/15 Q1014
LIBP 151250Z 06009KT CAVOK 23/15 Q1015
LIBP 151150Z 06010KT CAVOK 22/16 Q1016
LIBP 151050Z 06009KT CAVOK 23/16 Q1016
LIBP 150950Z 04007KT CAVOK 22/16 Q1017
LIBP 150850Z 35102KT CAVOK 21/16 Q1018
LIBP 150650Z 20003KT CAVOK 13/13 Q1018
LIBP 150550Z 22004KT 7000 FEW010 11/11 Q1018
LIBP 150450Z AUTO 23004KT 4800 BR NCD 12/11 Q1018
LIBP 150408Z AUTO 23002KT 2400 BR NCD 12/12 Q1018
LIBP 150350Z AUTO 23004KT 4300 BR NCD 13/12 Q1018
LIBP 150334Z AUTO 24004KT 3700 BR FEW002/// 12/12 Q1018
LIBP 150307Z AUTO 22003KT 1800 BR BKN002/// 13/13 Q1018
LIBP 150250Z AUTO 23004KT 0250 R22/0800V1100U FG VV002 14/13 Q1018
LIBP 150230Z AUTO 23004KT 0300 R22/0900VP1500U FG VV002 14/14 Q1019
LIBP 150217Z AUTO 21004KT 0200 R22/0750N FG VV002 14/14 Q1018
LIBP 150205Z AUTO 21004KT 180V240 0600 R22/P1500N FG OVC002/// 14/14 Q1018
LIBP 150203Z AUTO 22004KT 0900 R22/P1500N FG OVC002/// 14/14 Q1018
LIBP 150150Z AUTO 22003KT 1600 BR OVC003/// 14/13 Q1019
LIBP 150129Z AUTO 23003KT 0600 R22/P1500D FG BKN003/// 13/13 Q1019
LIBP 150118Z AUTO 22004KT 1400 R22/P1500N BR BKN003/// 13/12 Q1019
LIBP 150114Z AUTO 21004KT 2400 BR BKN003/// 13/12 Q1019
LIBP 150106Z AUTO 21004KT 3900 BR BKN003/// 13/12 Q1019
LIBP 150103Z AUTO 21004KT 3800 BR SCT003/// 13/12 Q1019
LIBP 150050Z AUTO 21004KT 2800 BR NCD 13/12 Q1019
LIBP 142350Z AUTO 21004KT 4400 BR NCD 13/12 Q1019
LIBP 142325Z AUTO 23003KT 2700 BR NCD 13/13 Q1020
LIBP 142250Z AUTO 21004KT 4700 BR NCD 13/13 Q1020
LIBP 142223Z AUTO 19004KT 4900 BR NCD 14/13 Q1020
LIBP 142205Z AUTO 20003KT 6000 NCD 14/13 Q1020
LIBP 142150Z AUTO 22002KT 4100 BR NCD 14/14 Q1020
LIBP 142139Z AUTO 24002KT 4900 BR NCD 15/14 Q1020
LIBP 142136Z AUTO 23002KT 5000 BR NCD 14/14 Q1020
LIBP 142111Z AUTO 22003KT 4800 BR NCD 14/14 Q1020
LIBP 142050Z 22003KT 9000 NSC 15/14 Q1020
LIBP 141950Z 21004KT CAVOK 15/14 Q1020
LIBP 141850Z VRB01KT 9999 FEW020 16/15 Q1021
LIBP 141650Z 08002KT 9999 FEW020 19/16 Q1021
LIBP 141550Z 07006KT 9999 FEW015 20/16 Q1021
LIBP 141450Z 07007KT 9999 FEW020 21/17 Q1021
LIBP 141350Z 05008KT CAVOK 22/17 Q1021
LIBP 141250Z 05008KT CAVOK 22/17 Q1021
LIBP 141150Z 05008KT CAVOK 22/07 Q1021
LIBP 141050Z 04006KT CAVOK 22/17 Q1022
LIBP 140950Z 07004KT CAVOK 22/17 Q1023
LIBP 140850Z VRB02KT CAVOK 21/15 Q1023
LIBP 140650Z 23004KT 9999 FEW012 14/13 Q1023
LIBP 140550Z 21003KT CAVOK 12/11 Q1023
LIBP 140450Z AUTO 22003KT 7000 NCD 13/12 Q1023
LIBP 140350Z AUTO 19004KT 5000 BR NCD 13/12 Q1023
LIBP 140337Z AUTO 20004KT 6000 NCD 13/12 Q1023
LIBP 140325Z AUTO 23002KT 4900 BR NCD 13/13 Q1023
LIBP 140322Z AUTO 23002KT 5000 BR FEW240/// 14/13 Q1023
LIBP 140250Z AUTO 21004KT 4700 BR NCD 13/13 Q1023
LIBP 140224Z AUTO 23003KT 2800 BR FEW230/// 14/14 Q1023
LIBP 140222Z AUTO 23003KT 4800 BR FEW230/// 14/14 Q1023
LIBP 140208Z AUTO 24003KT 6000 FEW240/// 14/14 Q1023
LIBP 140150Z AUTO 22004KT 4900 BR NCD 14/13 Q1023
LIBP 140124Z AUTO 22003KT 4800 BR NCD 14/14 Q1023
LIBP 140107Z AUTO 26003KT 8000 NCD 15/14 Q1023
LIBP 140050Z AUTO 21003KT 4500 BR NCD 15/14 Q1023
LIBP 140030Z AUTO VRB01KT 4900 BR NCD 15/14 Q1023
LIBP 140018Z AUTO 18001KT 8000 NCD 15/15 Q1023
LIBP 140005Z AUTO VRB01KT 1800 R22/1400D BR NCD 15/15 Q1023
LIBP 140002Z AUTO VRB01KT 4700 BR NCD 15/14 Q1023
LIBP 132350Z AUTO VRB02KT 2200 BR FEW240/// 15/15 Q1023
LIBP 132250Z AUTO 19003KT 9000 NCD 16/15 Q1023
LIBP 132150Z AUTO 21004KT 8000 NCD 16/15 Q1024
LIBP 132050Z 18002KT 9999 SCT016 18/17 Q1024
LIBP 131950Z 26002KT 9999 SCT020 18/16 Q1024
LIBP 131850Z 22003KT 9999 SCT020 19/17 Q1024
LIBP 131750Z VRB01KT 9999 SCT015 19/17 Q1024
LIBP 131650Z 08003KT 9999 FEW015 20/17 Q1023
LIBP 131550Z 08005KT 040V110 9999 FEW015 21/17 Q1023
LIBP 131450Z 06006KT 030V100 9999 FEW015 21/17 Q1023
LIBP 131350Z 07007KT CAVOK 22/17 Q1023
LIBP 131250Z 06007KT 030V100 9999 FEW030 22/17 Q1023
LIBP 131150Z 06008KT 030V090 9999 FEW030 22/17 Q1023
LIBP 131050Z 04006KT 9999 FEW030 22/17 Q1024
LIBP 130950Z 08004KT 040V150 9999 FEW020 22/16 Q1024
LIBP 130850Z 24003KT 200V290 9999 FEW020 21/15 Q1024
LIBP 130750Z 23005KT CAVOK 18/14 Q1024
LIBP 130650Z 23004KT 9999 FEW040 14/13 Q1024
LIBP 130550Z 21005KT 9999 FEW015 12/12 Q1024
LIBP 130450Z AUTO 21005KT 5000 BR FEW014/// 12/12 Q1024
LIBP 130352Z AUTO 22003KT 8000 BKN014/// 13/12 Q1023
LIBP 130250Z AUTO 22004KT 6000 NCD 13/12 Q1023

Informazioni elaborate utilizzando, tra l’altro, dati e prodotti del Servizio Meteorologico dell’Aeronautica Militare pubblicati sul sito www.meteoam.it e della National Oceanic and Atmospheric Administration (NOAA)

Ultimi caricamenti...


N711EG Gulfstream G-IV

 


N711EG Gulfstream G-IV

 


VF-140 Vigili del Fuoco AgustaWestland AW139

Questo sito non utilizza cookie di profilazione. Il sito utilizza cookie tecnici, di analisi anonima di prima parte e di terze parti per servizi di social network.